Time;durP1;ratioP1;P1;durP2;ratioP2;P2;SDS_P1;SDS_P2;PMS_P1;PMS_P2;Temp;Humidity;BMP_temperature;BMP_pressure;BME280_temperature;BME280_humidity;BME280_pressure;Samples;Min_cycle;Max_cycle;Signal;HPM_P1;HPM_P2
2021/09/17 00:00:11;;;;;;;18.27;5.22;;;;;;;23.78;54.16;99886.09;5034929;28;20053;-62
2021/09/17 00:02:36;;;;;;;13.82;5.05;;;;;;;23.73;54.32;99884.75;5035218;28;20037;-63
2021/09/17 00:05:03;;;;;;;17.98;4.90;;;;;;;23.69;54.31;99887.84;5035045;28;20048;-62
2021/09/17 00:07:28;;;;;;;17.60;4.70;;;;;;;23.67;54.48;99893.31;5034948;28;20044;-65
2021/09/17 00:09:53;;;;;;;18.80;4.57;;;;;;;23.66;54.47;99894.63;5034590;28;20021;-62
2021/09/17 00:12:19;;;;;;;15.70;4.93;;;;;;;23.65;54.36;99880.78;5035227;28;20029;-62
2021/09/17 00:14:44;;;;;;;16.33;5.47;;;;;;;23.61;54.72;99883.88;5034860;28;20032;-62
2021/09/17 00:17:10;;;;;;;15.82;4.28;;;;;;;23.61;54.37;99883.09;5034865;28;20017;-62
2021/09/17 00:19:35;;;;;;;18.45;4.43;;;;;;;23.59;54.54;99885.66;5034866;28;20061;-62
2021/09/17 00:22:01;;;;;;;18.13;4.53;;;;;;;23.56;54.63;99881.72;5034973;28;20023;-61
2021/09/17 00:24:26;;;;;;;18.10;4.85;;;;;;;23.57;54.47;99876.78;5036555;28;20037;-64
2021/09/17 00:26:52;;;;;;;10.30;4.38;;;;;;;23.57;54.63;99871.84;5038309;28;20057;-64
2021/09/17 00:29:17;;;;;;;13.38;4.80;;;;;;;23.57;54.52;99866.09;5038542;28;20105;-62
2021/09/17 00:31:42;;;;;;;19.17;4.88;;;;;;;23.57;54.56;99860.34;5038231;28;20413;-63
2021/09/17 00:34:09;;;;;;;15.02;5.13;;;;;;;23.59;54.63;99869.25;5038464;28;20401;-63
2021/09/17 00:36:34;;;;;;;16.77;4.85;;;;;;;23.57;54.70;99860.34;5038442;28;20469;-63
2021/09/17 00:39:00;;;;;;;15.00;5.15;;;;;;;23.56;54.38;99852.25;5037733;28;20067;-61
2021/09/17 00:41:25;;;;;;;18.88;5.25;;;;;;;23.54;54.33;99849.84;5038611;28;20025;-62
2021/09/17 00:43:51;;;;;;;11.15;4.30;;;;;;;23.53;54.40;99850.34;5038143;28;20317;-63
2021/09/17 00:46:16;;;;;;;14.60;4.60;;;;;;;23.52;54.55;99845.91;5038094;28;20112;-63
2021/09/17 00:48:41;;;;;;;13.77;4.25;;;;;;;23.48;54.62;99840.41;5038336;28;20355;-64
2021/09/17 00:51:07;;;;;;;15.57;4.65;;;;;;;23.43;54.71;99838.25;5038007;28;20025;-62
2021/09/17 00:53:35;;;;;;;20.02;4.70;;;;;;;23.43;55.01;99844.00;5038048;28;20407;-62
2021/09/17 00:56:02;;;;;;;19.02;5.05;;;;;;;23.43;54.70;99839.06;5037750;28;20025;-62
2021/09/17 00:58:29;;;;;;;17.02;5.25;;;;;;;23.46;54.49;99834.38;5036142;28;20025;-63
2021/09/17 01:00:54;;;;;;;19.27;5.45;;;;;;;23.47;54.47;99832.31;5037767;28;20037;-63
2021/09/17 01:03:20;;;;;;;16.42;4.45;;;;;;;23.44;54.56;99828.38;5037658;28;20032;-63
2021/09/17 01:05:45;;;;;;;22.50;5.05;;;;;;;23.45;54.71;99829.94;5037657;28;20036;-62
2021/09/17 01:08:10;;;;;;;12.98;4.53;;;;;;;23.45;54.39;99824.19;5037731;28;20025;-63
2021/09/17 01:10:36;;;;;;;14.35;4.65;;;;;;;23.45;54.65;99821.34;5037795;28;20108;-62
2021/09/17 01:13:02;;;;;;;24.02;5.90;;;;;;;23.44;54.61;99822.63;5037836;28;20022;-63
2021/09/17 01:15:28;;;;;;;18.70;5.28;;;;;;;23.41;54.70;99815.03;5037502;28;20440;-62
2021/09/17 01:17:53;;;;;;;12.07;4.22;;;;;;;23.37;54.77;99818.13;5037843;28;20021;-61
2021/09/17 01:20:20;;;;;;;14.13;4.05;;;;;;;23.36;54.92;99802.22;5037644;28;20466;-62
2021/09/17 01:22:48;;;;;;;18.23;4.88;;;;;;;23.35;54.86;99799.88;5037077;28;20049;-62
2021/09/17 01:25:16;;;;;;;20.42;5.63;;;;;;;23.32;54.80;99798.78;5037318;28;20029;-62
2021/09/17 01:27:46;;;;;;;21.55;4.68;;;;;;;23.30;54.66;99798.53;5037000;28;20025;-63
2021/09/17 01:30:12;;;;;;;12.45;4.47;;;;;;;23.29;54.89;99799.03;5037452;28;20021;-64
2021/09/17 01:32:41;;;;;;;11.05;4.47;;;;;;;23.27;54.82;99788.03;5037552;28;20030;-64
2021/09/17 01:35:15;;;;;;;17.85;5.15;;;;;;;23.28;54.84;99794.56;5036633;28;20586;-65
2021/09/17 01:37:41;;;;;;;17.08;3.92;;;;;;;23.25;54.91;99793.50;5037150;28;20125;-64
2021/09/17 01:40:08;;;;;;;13.25;4.55;;;;;;;23.23;54.87;99784.59;5036892;28;20017;-64
2021/09/17 01:42:34;;;;;;;16.55;5.07;;;;;;;23.23;55.03;99786.69;5037121;28;20041;-61
2021/09/17 01:44:59;;;;;;;10.82;5.45;;;;;;;23.23;55.18;99789.56;5036875;28;20083;-61
2021/09/17 01:47:25;;;;;;;15.30;4.07;;;;;;;23.22;54.97;99783.03;5036789;28;20138;-61
2021/09/17 01:49:50;;;;;;;15.50;4.88;;;;;;;23.22;55.13;99777.28;5036857;28;20360;-64
2021/09/17 01:52:16;;;;;;;18.40;4.53;;;;;;;23.24;54.94;99776.78;5037191;28;20084;-65
2021/09/17 01:54:42;;;;;;;14.80;5.03;;;;;;;23.24;54.98;99768.19;5036958;28;20029;-64
2021/09/17 01:57:07;;;;;;;15.43;4.40;;;;;;;23.24;55.15;99765.31;5036504;28;20028;-61
2021/09/17 01:59:33;;;;;;;12.57;5.03;;;;;;;23.23;55.08;99770.28;5036895;28;20104;-63
2021/09/17 02:01:59;;;;;;;14.73;5.35;;;;;;;23.23;55.49;99758.81;5036567;28;20027;-63
2021/09/17 02:04:25;;;;;;;13.93;4.20;;;;;;;23.24;55.27;99753.84;5031892;28;20105;-64
2021/09/17 02:06:50;;;;;;;19.98;5.05;;;;;;;23.20;55.21;99753.28;5031148;28;20364;-61
2021/09/17 02:09:15;;;;;;;20.75;4.43;;;;;;;23.21;55.41;99752.00;5036654;28;20029;-62
2021/09/17 02:11:41;;;;;;;14.82;4.57;;;;;;;23.21;55.47;99757.72;5036475;28;20465;-64
2021/09/17 02:14:06;;;;;;;15.85;4.20;;;;;;;23.21;55.55;99734.81;5036113;28;20104;-63
2021/09/17 02:16:31;;;;;;;14.77;4.18;;;;;;;23.21;55.56;99737.66;5036540;28;20017;-63
2021/09/17 02:18:57;;;;;;;19.67;4.38;;;;;;;23.22;55.32;99739.25;5036279;28;20306;-63
2021/09/17 02:21:22;;;;;;;15.13;4.72;;;;;;;23.22;55.46;99730.66;5036218;28;20025;-62
2021/09/17 02:23:49;;;;;;;14.93;6.07;;;;;;;23.22;55.57;99730.66;5035984;28;20025;-62
2021/09/17 02:26:16;;;;;;;21.30;5.40;;;;;;;23.23;55.38;99729.34;5035884;28;20473;-62
2021/09/17 02:28:42;;;;;;;24.30;5.70;;;;;;;23.21;55.55;99729.84;5036310;28;20029;-62
2021/09/17 02:31:07;;;;;;;15.25;5.45;;;;;;;23.19;55.54;99728.78;5036264;28;20360;-61
2021/09/17 02:33:33;;;;;;;15.32;4.78;;;;;;;23.18;55.55;99715.75;5036067;28;20025;-61
2021/09/17 02:35:59;;;;;;;15.02;4.97;;;;;;;23.17;55.34;99717.84;5035541;28;20183;-61
2021/09/17 02:38:25;;;;;;;10.05;4.00;;;;;;;23.19;55.65;99720.19;5036176;28;20025;-61
2021/09/17 02:40:51;;;;;;;16.33;4.65;;;;;;;23.22;55.59;99713.44;5036101;28;20071;-61
2021/09/17 02:43:16;;;;;;;14.00;3.97;;;;;;;23.21;55.72;99711.88;5034772;28;20018;-62
2021/09/17 02:45:42;;;;;;;17.50;4.80;;;;;;;23.21;55.63;99715.53;5035845;28;20029;-62
2021/09/17 02:48:07;;;;;;;14.93;5.18;;;;;;;23.20;55.68;99711.09;5035171;28;20033;-61
2021/09/17 02:50:33;;;;;;;16.73;4.63;;;;;;;23.19;55.66;99714.47;5035831;28;20017;-62
2021/09/17 02:52:58;;;;;;;15.85;4.38;;;;;;;23.16;55.71;99701.13;5035600;28;20025;-61
2021/09/17 02:55:23;;;;;;;15.82;4.70;;;;;;;23.15;55.94;99702.44;5035958;28;20025;-62
2021/09/17 02:57:49;;;;;;;18.33;5.20;;;;;;;23.11;55.91;99700.59;5035966;28;20025;-64
2021/09/17 03:00:15;;;;;;;16.17;4.82;;;;;;;23.12;55.84;99693.56;5035503;28;20028;-64
2021/09/17 03:02:40;;;;;;;14.35;4.75;;;;;;;23.15;55.72;99696.69;5035664;28;20093;-63
2021/09/17 03:05:06;;;;;;;16.30;5.18;;;;;;;23.14;55.82;99695.91;5035646;28;20360;-63
2021/09/17 03:07:32;;;;;;;16.85;4.38;;;;;;;23.13;55.95;99691.47;5035411;28;20308;-63
2021/09/17 03:09:57;;;;;;;18.05;4.72;;;;;;;23.10;56.02;99690.41;5035931;28;20026;-66
2021/09/17 03:12:22;;;;;;;18.30;5.38;;;;;;;23.08;55.89;99690.13;5035550;28;20105;-63
2021/09/17 03:14:47;;;;;;;19.15;5.38;;;;;;;23.08;56.02;99684.41;5035577;28;20061;-64
2021/09/17 03:17:13;;;;;;;24.55;4.57;;;;;;;23.06;56.12;99671.88;5035123;28;20017;-64
2021/09/17 03:19:38;;;;;;;15.68;4.57;;;;;;;23.05;56.19;99673.94;5035727;28;20368;-63
2021/09/17 03:22:04;;;;;;;20.63;5.25;;;;;;;22.99;56.52;99678.81;5035465;28;20029;-64
2021/09/17 03:24:30;;;;;;;21.45;5.47;;;;;;;23.00;56.59;99682.47;5033045;28;20033;-64
2021/09/17 03:26:55;;;;;;;16.05;4.65;;;;;;;23.03;56.74;99687.22;5035395;28;20036;-63
2021/09/17 03:29:21;;;;;;;9.85;4.22;;;;;;;23.02;56.56;99683.56;5034264;28;20017;-62
2021/09/17 03:31:47;;;;;;;11.20;4.60;;;;;;;23.00;56.54;99683.25;5035147;28;20079;-61
2021/09/17 03:34:12;;;;;;;17.55;5.45;;;;;;;22.99;56.59;99675.97;5035233;28;20368;-63
2021/09/17 03:36:42;;;;;;;16.20;4.22;;;;;;;22.97;56.85;99681.41;5035283;28;20045;-64
2021/09/17 03:39:17;;;;;;;16.88;4.47;;;;;;;22.94;56.89;99676.69;5035160;28;20049;-61
2021/09/17 03:41:45;;;;;;;26.27;5.35;;;;;;;22.91;57.00;99659.72;5035356;28;20033;-61
2021/09/17 03:44:12;;;;;;;15.40;5.38;;;;;;;22.90;57.23;99650.34;5035205;28;20029;-65
2021/09/17 03:46:37;;;;;;;18.45;5.03;;;;;;;22.89;57.14;99656.59;5034841;28;20025;-61
2021/09/17 03:49:03;;;;;;;15.95;5.05;;;;;;;22.91;57.37;99651.91;5035196;28;20413;-64
2021/09/17 03:51:28;;;;;;;13.98;4.32;;;;;;;22.90;57.40;99663.88;5035132;28;20120;-64
2021/09/17 03:53:53;;;;;;;11.55;4.30;;;;;;;22.89;57.37;99657.38;5034982;28;20398;-61
2021/09/17 03:56:19;;;;;;;12.18;4.88;;;;;;;22.88;57.62;99661.53;5017686;28;20241;-62
2021/09/17 03:58:44;;;;;;;11.40;4.72;;;;;;;22.86;57.80;99654.72;5036213;28;20029;-64
2021/09/17 04:01:09;;;;;;;12.98;4.78;;;;;;;22.86;58.26;99658.38;5038714;28;20029;-63
2021/09/17 04:03:35;;;;;;;15.85;5.05;;;;;;;22.87;57.84;99656.31;5039003;28;20482;-61
2021/09/17 04:06:00;;;;;;;20.40;5.28;;;;;;;22.87;58.04;99654.22;5039041;28;20101;-63
2021/09/17 04:08:25;;;;;;;16.23;3.88;;;;;;;22.89;58.07;99653.72;5039225;28;20029;-61
2021/09/17 04:10:51;;;;;;;14.77;4.55;;;;;;;22.89;58.18;99653.72;5038782;28;20151;-64
2021/09/17 04:13:16;;;;;;;17.60;5.13;;;;;;;22.92;58.03;99650.63;5038883;28;20044;-61
2021/09/17 04:15:42;;;;;;;16.55;5.22;;;;;;;22.93;57.95;99651.41;5037218;28;20083;-63
2021/09/17 04:18:07;;;;;;;15.23;4.15;;;;;;;22.96;58.06;99653.25;5038878;28;20376;-62
2021/09/17 04:20:32;;;;;;;16.35;4.13;;;;;;;22.93;58.20;99662.88;5038502;28;20029;-63
2021/09/17 04:22:58;;;;;;;15.52;5.40;;;;;;;22.90;58.30;99658.94;5038913;28;20040;-62
2021/09/17 04:25:23;;;;;;;18.38;4.95;;;;;;;22.89;58.36;99662.31;5038446;28;20029;-62
2021/09/17 04:27:49;;;;;;;18.27;6.30;;;;;;;22.89;58.74;99654.50;5038494;28;20022;-62
2021/09/17 04:30:15;;;;;;;15.48;4.90;;;;;;;22.87;58.71;99654.22;5038832;28;20041;-62
2021/09/17 04:32:45;;;;;;;14.98;4.90;;;;;;;22.87;58.77;99654.22;5038089;28;20417;-62
2021/09/17 04:35:11;;;;;;;14.18;4.57;;;;;;;22.86;58.91;99651.88;5038385;28;20037;-63
2021/09/17 04:37:44;;;;;;;14.27;4.75;;;;;;;22.83;59.47;99647.94;5038054;28;20136;-62
2021/09/17 04:40:12;;;;;;;18.58;5.28;;;;;;;22.84;59.23;99655.25;5038161;28;20043;-62
2021/09/17 04:42:37;;;;;;;23.63;5.88;;;;;;;22.83;59.05;99650.81;5038500;28;20031;-62
2021/09/17 04:45:04;;;;;;;13.35;4.82;;;;;;;22.81;59.27;99648.44;5038005;28;20328;-62
2021/09/17 04:47:30;;;;;;;13.68;5.07;;;;;;;22.79;59.38;99648.13;5034482;28;20064;-63
2021/09/17 04:49:55;;;;;;;13.77;4.97;;;;;;;22.81;59.77;99633.34;5028225;28;20108;-63
2021/09/17 04:52:21;;;;;;;16.95;5.28;;;;;;;22.80;59.52;99632.53;5034700;28;20022;-62
2021/09/17 04:54:48;;;;;;;11.07;4.50;;;;;;;22.79;59.64;99641.63;5023683;28;20036;-60
2021/09/17 04:57:14;;;;;;;10.13;4.40;;;;;;;22.76;59.62;99649.16;5031769;28;20105;-65
2021/09/17 04:59:39;;;;;;;11.32;4.38;;;;;;;22.76;59.70;99651.22;5026025;28;20148;-61
2021/09/17 05:02:04;;;;;;;14.02;4.50;;;;;;;22.76;59.65;99654.88;5032344;28;20025;-63
2021/09/17 05:04:30;;;;;;;20.10;4.82;;;;;;;22.78;59.81;99660.09;5036164;28;20037;-61
2021/09/17 05:06:56;;;;;;;15.55;4.97;;;;;;;22.80;59.86;99660.38;5033138;28;20029;-62
2021/09/17 05:09:21;;;;;;;13.32;5.00;;;;;;;22.81;60.01;99670.56;5032336;28;20033;-62
2021/09/17 05:11:46;;;;;;;14.52;4.95;;;;;;;22.82;60.40;99669.28;5036083;28;20053;-60
2021/09/17 05:14:12;;;;;;;15.82;5.30;;;;;;;22.84;60.35;99663.84;5037177;28;20412;-64
2021/09/17 05:16:38;;;;;;;11.43;4.43;;;;;;;22.85;60.57;99670.34;5036704;28;20449;-63
2021/09/17 05:19:04;;;;;;;15.63;4.20;;;;;;;22.87;60.77;99674.28;5035750;28;20033;-63
2021/09/17 05:21:29;;;;;;;11.52;4.47;;;;;;;22.86;60.82;99669.84;5036148;28;20163;-63
2021/09/17 05:23:55;;;;;;;18.90;4.57;;;;;;;22.85;60.85;99674.00;5036729;28;20032;-61
2021/09/17 05:26:20;;;;;;;13.32;4.05;;;;;;;22.84;60.80;99672.44;5036830;28;20084;-63
2021/09/17 05:28:45;;;;;;;18.85;4.75;;;;;;;22.85;61.18;99665.41;5037108;28;20045;-63
2021/09/17 05:31:11;;;;;;;16.42;4.50;;;;;;;22.84;61.34;99666.69;5037160;28;20028;-63
2021/09/17 05:33:37;;;;;;;17.10;4.93;;;;;;;22.86;61.69;99669.06;5037790;28;20036;-60
2021/09/17 05:36:02;;;;;;;20.95;5.22;;;;;;;22.89;62.48;99668.03;5036850;28;20049;-63
2021/09/17 05:38:28;;;;;;;11.77;4.55;;;;;;;22.89;62.31;99668.03;5037319;28;20036;-63
2021/09/17 05:40:53;;;;;;;16.48;4.88;;;;;;;22.91;62.63;99669.09;5037153;28;20057;-63
2021/09/17 05:43:18;;;;;;;12.77;4.63;;;;;;;22.90;63.45;99669.63;5036772;28;20025;-63
2021/09/17 05:45:44;;;;;;;22.23;4.50;;;;;;;22.88;63.46;99661.53;5037296;28;20465;-63
2021/09/17 05:48:09;;;;;;;15.65;4.13;;;;;;;22.88;63.54;99664.41;5036860;28;20045;-63
2021/09/17 05:50:34;;;;;;;14.75;5.30;;;;;;;22.90;63.25;99658.94;5036999;28;20105;-61
2021/09/17 05:53:00;;;;;;;11.10;4.80;;;;;;;22.88;63.97;99664.41;5036897;28;20064;-61
2021/09/17 05:55:27;;;;;;;8.75;4.22;;;;;;;22.89;63.53;99668.03;5037104;28;20048;-62
2021/09/17 05:57:56;;;;;;;18.98;4.90;;;;;;;22.93;64.09;99663.66;5036607;28;20352;-61
2021/09/17 06:00:22;;;;;;;19.17;4.18;;;;;;;22.95;64.26;99675.41;5037205;28;20151;-62
2021/09/17 06:02:48;;;;;;;24.27;4.65;;;;;;;22.95;64.99;99672.53;5037008;28;20449;-63
2021/09/17 06:05:13;;;;;;;9.45;3.75;;;;;;;22.91;64.61;99674.06;5036423;28;20018;-61
2021/09/17 06:07:43;;;;;;;15.30;4.18;;;;;;;22.96;65.32;99673.31;5036750;28;20041;-63
2021/09/17 06:10:10;;;;;;;17.08;3.55;;;;;;;22.96;65.72;99676.97;5036921;28;20033;-62
2021/09/17 06:12:36;;;;;;;7.47;3.17;;;;;;;22.95;65.17;99684.00;5036314;28;20037;-61
2021/09/17 06:15:02;;;;;;;10.43;4.00;;;;;;;22.98;65.90;99694.44;5036546;28;20028;-61
2021/09/17 06:17:27;;;;;;;16.65;3.95;;;;;;;22.99;66.16;99687.41;5036726;28;20021;-63
2021/09/17 06:19:53;;;;;;;8.00;2.90;;;;;;;23.01;66.33;99687.72;5036596;28;20028;-63
2021/09/17 06:22:18;;;;;;;8.05;3.40;;;;;;;23.03;66.46;99690.88;5035712;28;20060;-62
2021/09/17 06:24:43;;;;;;;11.10;3.10;;;;;;;23.02;66.73;99691.38;5036533;28;20041;-62
2021/09/17 06:27:09;;;;;;;8.00;2.70;;;;;;;23.07;66.83;99688.56;5036022;28;20108;-63
2021/09/17 06:29:34;;;;;;;8.48;2.90;;;;;;;23.10;66.16;99693.28;5036109;28;20033;-62
2021/09/17 06:31:59;;;;;;;9.77;2.67;;;;;;;23.11;66.19;99691.19;5036354;28;20132;-61
2021/09/17 06:34:25;;;;;;;18.33;3.42;;;;;;;23.11;65.74;99689.13;5036177;28;20028;-63
2021/09/17 06:36:50;;;;;;;6.35;2.42;;;;;;;23.13;65.61;99685.75;5036177;28;20045;-62
2021/09/17 06:39:17;;;;;;;9.45;2.65;;;;;;;23.16;65.55;99686.81;5035971;28;20064;-63
2021/09/17 06:41:43;;;;;;;3.95;1.63;;;;;;;23.18;65.86;99692.81;5035960;28;20498;-63
2021/09/17 06:44:08;;;;;;;4.57;2.33;;;;;;;23.18;65.36;99704.28;5036133;28;20051;-61
2021/09/17 06:46:34;;;;;;;10.18;2.72;;;;;;;23.19;65.92;99706.66;5035759;28;20021;-64
2021/09/17 06:48:59;;;;;;;6.82;2.47;;;;;;;23.17;65.70;99709.22;5035982;28;20057;-62
2021/09/17 06:51:25;;;;;;;10.25;2.67;;;;;;;23.15;65.58;99720.41;5035749;28;20033;-62
2021/09/17 06:53:50;;;;;;;8.77;2.40;;;;;;;23.15;65.26;99716.78;5035827;28;20071;-63
2021/09/17 06:56:15;;;;;;;4.90;2.03;;;;;;;23.10;65.38;99713.34;5031958;28;20085;-62
2021/09/17 06:58:40;;;;;;;3.40;2.10;;;;;;;23.14;65.69;99707.38;5035820;28;20025;-63
2021/09/17 07:01:06;;;;;;;3.83;1.90;;;;;;;23.10;65.40;99707.63;5035582;28;20025;-63
2021/09/17 07:03:31;;;;;;;3.67;1.65;;;;;;;23.12;65.35;99715.69;5035622;28;20028;-63
2021/09/17 07:05:57;;;;;;;5.35;1.92;;;;;;;23.12;65.62;99719.34;5035725;28;20025;-62
2021/09/17 07:08:23;;;;;;;8.10;2.20;;;;;;;23.13;65.46;99711.53;5035757;28;20025;-65
2021/09/17 07:10:49;;;;;;;5.55;2.10;;;;;;;23.14;65.48;99721.72;5035182;28;20479;-63
2021/09/17 07:13:14;;;;;;;2.10;1.50;;;;;;;23.15;65.53;99717.56;5035493;28;20410;-60
2021/09/17 07:15:40;;;;;;;3.97;1.63;;;;;;;23.23;65.82;99720.75;5035534;28;20041;-62
2021/09/17 07:18:06;;;;;;;7.70;1.70;;;;;;;23.35;66.43;99716.72;5035426;28;20067;-61
2021/09/17 07:20:33;;;;;;;1.75;1.30;;;;;;;23.43;65.54;99717.81;5035606;28;20025;-63
2021/09/17 07:22:58;;;;;;;38.20;3.83;;;;;;;23.50;64.80;99728.81;5035710;28;20021;-65
2021/09/17 07:25:24;;;;;;;7.40;1.95;;;;;;;23.53;65.02;99722.06;5035291;28;20320;-62
2021/09/17 07:27:49;;;;;;;3.13;1.77;;;;;;;23.65;65.36;99728.72;5035312;28;20053;-63
2021/09/17 07:30:16;;;;;;;5.15;1.90;;;;;;;23.73;65.55;99718.34;5035499;28;20025;-63
2021/09/17 07:32:41;;;;;;;5.95;1.67;;;;;;;23.83;64.81;99719.75;5034753;28;20104;-62
2021/09/17 07:35:08;;;;;;;5.40;2.03;;;;;;;23.90;64.65;99721.34;5034913;28;20109;-63
2021/09/17 07:37:34;;;;;;;8.10;1.92;;;;;;;23.95;64.38;99720.59;5035148;28;20050;-62
2021/09/17 07:39:59;;;;;;;6.82;1.70;;;;;;;23.97;63.37;99723.75;5035001;28;20109;-62
2021/09/17 07:42:24;;;;;;;3.55;1.50;;;;;;;23.97;64.00;99724.53;5035278;28;20039;-63
2021/09/17 07:44:50;;;;;;;5.03;1.45;;;;;;;23.97;63.73;99726.63;5035184;28;20100;-63
2021/09/17 07:47:15;;;;;;;3.65;1.75;;;;;;;23.98;63.21;99716.69;5035270;28;20021;-63
2021/09/17 07:49:40;;;;;;;2.08;1.40;;;;;;;23.98;63.35;99719.56;5034884;28;20029;-62
2021/09/17 07:52:06;;;;;;;3.95;1.17;;;;;;;23.99;63.21;99738.38;5035139;28;20025;-61
2021/09/17 07:54:31;;;;;;;2.42;1.38;;;;;;;23.97;63.10;99729.47;5034921;28;20036;-62
2021/09/17 07:56:57;;;;;;;2.25;1.20;;;;;;;23.96;62.69;99737.31;5035139;28;20018;-63
2021/09/17 07:59:22;;;;;;;3.53;1.75;;;;;;;23.93;62.70;99743.28;5035098;28;20079;-63
2021/09/17 08:01:48;;;;;;;3.78;1.67;;;;;;;23.90;62.84;99747.19;5030794;28;20040;-63
2021/09/17 08:04:13;;;;;;;3.92;1.40;;;;;;;23.88;63.05;99746.91;5025240;28;20022;-62
2021/09/17 08:06:39;;;;;;;3.92;1.33;;;;;;;23.87;63.22;99740.38;5034884;28;20081;-61
2021/09/17 08:09:06;;;;;;;5.97;1.50;;;;;;;23.89;62.70;99737.78;5034759;28;20128;-63
2021/09/17 08:11:32;;;;;;;2.97;1.67;;;;;;;23.93;62.38;99738.34;5035137;28;20487;-60
2021/09/17 08:13:57;;;;;;;1.65;1.38;;;;;;;23.94;62.74;99733.38;5034782;28;20121;-64
2021/09/17 08:16:23;;;;;;;3.00;1.60;;;;;;;23.96;62.39;99727.91;5035090;28;20025;-62
2021/09/17 08:18:48;;;;;;;2.83;1.67;;;;;;;23.99;62.03;99730.53;5035226;28;20127;-63
2021/09/17 08:21:13;;;;;;;6.87;2.00;;;;;;;24.02;62.76;99728.72;5034780;28;20428;-62
2021/09/17 08:23:39;;;;;;;4.22;2.15;;;;;;;24.09;63.13;99744.69;5034820;28;20262;-62
2021/09/17 08:26:08;;;;;;;4.40;2.17;;;;;;;24.17;62.99;99740.84;5033694;28;20032;-65
2021/09/17 08:28:33;;;;;;;3.65;2.00;;;;;;;24.24;62.01;99746.09;5034840;28;20436;-62
2021/09/17 08:31:01;;;;;;;2.47;1.92;;;;;;;24.30;62.49;99755.56;5034622;28;20025;-63
2021/09/17 08:33:27;;;;;;;3.45;2.00;;;;;;;24.30;61.88;99744.06;5035162;28;20029;-62
2021/09/17 08:35:52;;;;;;;5.60;1.80;;;;;;;24.31;61.45;99748.50;5034486;28;20046;-62
2021/09/17 08:38:18;;;;;;;6.28;1.98;;;;;;;24.36;62.45;99746.97;5034799;28;20108;-63
2021/09/17 08:40:43;;;;;;;5.90;2.25;;;;;;;24.43;61.80;99740.75;5035191;28;20437;-62
2021/09/17 08:43:08;;;;;;;5.32;2.10;;;;;;;24.51;61.10;99752.53;5034411;28;20029;-63
2021/09/17 08:45:34;;;;;;;9.23;1.85;;;;;;;24.57;60.88;99747.59;5036855;28;20018;-63
2021/09/17 08:48:00;;;;;;;4.97;2.30;;;;;;;24.64;60.45;99738.47;5038011;28;20071;-63
2021/09/17 08:50:26;;;;;;;7.80;2.10;;;;;;;24.70;59.94;99747.16;5038167;28;20029;-63
2021/09/17 08:52:51;;;;;;;6.45;2.28;;;;;;;24.74;60.78;99742.72;5037900;28;20079;-62
2021/09/17 08:55:17;;;;;;;6.68;2.55;;;;;;;24.72;59.96;99739.59;5038196;28;20405;-65
2021/09/17 08:57:43;;;;;;;2.40;1.60;;;;;;;24.68;59.83;99750.53;5038181;28;20044;-62
2021/09/17 09:00:30;;;;;;;3.83;1.30;;;;;;;24.64;60.10;99738.47;5037751;28;20026;-63
2021/09/17 09:02:57;;;;;;;7.30;1.80;;;;;;;24.61;60.40;99748.13;5037621;28;20494;-63
2021/09/17 09:05:30;;;;;;;4.88;2.42;;;;;;;24.58;60.45;99737.69;5037231;28;20030;-62
2021/09/17 09:07:57;;;;;;;3.97;2.10;;;;;;;24.60;61.22;99746.56;5037999;28;20029;-63
2021/09/17 09:10:22;;;;;;;5.55;2.20;;;;;;;24.59;59.97;99739.25;5037722;28;20037;-63
2021/09/17 09:12:51;;;;;;;4.55;2.10;;;;;;;24.63;60.36;99742.66;5037827;28;20042;-63
2021/09/17 09:15:29;;;;;;;3.42;1.60;;;;;;;24.74;60.11;99739.84;5037784;28;20029;-63
2021/09/17 09:17:58;;;;;;;4.22;1.60;;;;;;;24.85;59.38;99742.75;5037910;28;20349;-62
2021/09/17 09:20:29;;;;;;;2.97;1.45;;;;;;;24.95;59.52;99746.19;5037621;28;20025;-63
2021/09/17 09:23:19;;;;;;;3.05;1.70;;;;;;;24.97;58.73;99734.97;5036642;28;20108;-63
2021/09/17 09:25:47;;;;;;;11.02;1.75;;;;;;;24.98;58.77;99738.63;5036495;28;20045;-63
2021/09/17 09:28:18;;;;;;;6.78;2.00;;;;;;;24.98;59.10;99735.75;5037450;28;20021;-62
2021/09/17 09:30:44;;;;;;;5.10;2.25;;;;;;;25.03;59.67;99735.78;5036126;28;20417;-63
2021/09/17 09:33:30;;;;;;;3.75;1.70;;;;;;;25.06;59.51;99743.38;5037454;28;20025;-64
2021/09/17 09:36:19;;;;;;;11.93;1.80;;;;;;;24.98;59.79;99753.78;5036994;28;20046;-62
2021/09/17 09:38:53;;;;;;;3.00;1.52;;;;;;;24.90;59.76;99753.47;5037535;28;20035;-63
2021/09/17 09:41:25;;;;;;;3.75;1.98;;;;;;;24.82;60.07;99749.53;5033930;28;20068;-63
2021/09/17 09:43:57;;;;;;;2.60;1.65;;;;;;;24.78;60.71;99749.00;5028288;28;20059;-63
2021/09/17 09:46:23;;;;;;;4.45;1.90;;;;;;;24.82;61.12;99740.91;5036680;28;20021;-61
2021/09/17 09:49:09;;;;;;;3.53;1.27;;;;;;;24.96;60.99;99739.16;5036915;28;20032;-64
2021/09/17 09:51:41;;;;;;;3.80;1.48;;;;;;;25.08;59.58;99732.13;5036935;28;20021;-63
2021/09/17 09:54:08;;;;;;;7.70;1.92;;;;;;;25.21;59.74;99731.66;5037012;28;20417;-63
2021/09/17 09:56:35;;;;;;;4.28;1.40;;;;;;;25.31;58.70;99732.97;5036170;28;20321;-63
2021/09/17 09:59:03;;;;;;;1.50;1.40;;;;;;;25.44;59.24;99736.09;5036816;28;20027;-63
2021/09/17 10:01:30;;;;;;;9.70;1.58;;;;;;;25.54;58.56;99734.56;5036776;28;20044;-62
2021/09/17 10:03:59;;;;;;;3.83;1.13;;;;;;;25.64;57.68;99737.16;5036841;28;20025;-63
2021/09/17 10:06:25;;;;;;;4.13;1.10;;;;;;;25.67;57.10;99733.28;5036396;28;20022;-62
2021/09/17 10:08:53;;;;;;;4.85;1.35;;;;;;;25.69;57.18;99736.41;5036731;28;20321;-62
2021/09/17 10:11:23;;;;;;;2.70;1.10;;;;;;;25.79;58.13;99726.22;5036815;28;20037;-62
2021/09/17 10:13:50;;;;;;;7.32;1.20;;;;;;;25.87;56.86;99735.88;5035469;28;20034;-63
2021/09/17 10:16:17;;;;;;;5.68;1.38;;;;;;;25.98;56.18;99738.75;5036810;28;20021;-63
2021/09/17 10:18:44;;;;;;;3.15;1.15;;;;;;;26.04;56.28;99741.63;5036572;28;20032;-63
2021/09/17 10:21:13;;;;;;;6.10;1.15;;;;;;;26.09;56.13;99746.59;5036290;28;20017;-64
2021/09/17 10:23:43;;;;;;;2.72;1.20;;;;;;;26.04;55.69;99748.19;5036690;28;20039;-62
2021/09/17 10:26:11;;;;;;;3.53;1.33;;;;;;;25.95;56.01;99754.19;5035204;28;20079;-62
2021/09/17 10:29:03;;;;;;;3.15;1.50;;;;;;;25.89;56.02;99750.53;5036674;28;20018;-63
2021/09/17 10:31:40;;;;;;;3.38;1.67;;;;;;;25.85;56.30;99752.91;5024159;28;20017;-62
2021/09/17 10:34:28;;;;;;;1.45;1.20;;;;;;;25.87;55.81;99747.41;5036273;28;20037;-63
2021/09/17 10:36:53;;;;;;;3.63;1.33;;;;;;;25.86;55.75;99748.72;5036100;28;20333;-63
2021/09/17 10:39:19;;;;;;;6.32;1.70;;;;;;;25.86;55.73;99754.47;5036107;28;20124;-64
2021/09/17 10:42:03;;;;;;;2.40;1.35;;;;;;;25.81;55.76;99755.25;5036078;28;20368;-63
2021/09/17 10:44:28;;;;;;;0.82;0.82;;;;;;;25.74;55.58;99758.63;5035917;28;20045;-63
2021/09/17 10:46:53;;;;;;;6.03;1.48;;;;;;;25.70;55.65;99746.63;5035929;28;20163;-63
2021/09/17 10:49:19;;;;;;;1.95;1.30;;;;;;;25.72;56.40;99746.88;5035952;28;20037;-63
2021/09/17 10:51:45;;;;;;;1.83;1.30;;;;;;;25.79;56.60;99746.38;5035852;28;20104;-62
2021/09/17 10:54:12;;;;;;;3.70;1.48;;;;;;;25.91;55.37;99753.69;5036119;28;20286;-63
2021/09/17 10:56:47;;;;;;;5.75;1.30;;;;;;;25.96;55.31;99763.63;5035840;28;20047;-64
2021/09/17 10:59:25;;;;;;;6.80;1.30;;;;;;;25.96;54.65;99757.84;5035746;28;20033;-65
2021/09/17 11:01:53;;;;;;;7.93;1.60;;;;;;;25.92;53.99;99757.34;5035656;28;20052;-62
2021/09/17 11:04:26;;;;;;;2.80;1.25;;;;;;;25.81;54.11;99761.03;5035529;28;20021;-63
2021/09/17 11:06:53;;;;;;;2.13;1.23;;;;;;;25.82;54.11;99765.47;5035651;28;20025;-62
2021/09/17 11:09:41;;;;;;;4.18;1.10;;;;;;;25.86;54.11;99763.09;5022113;28;20017;-63
2021/09/17 11:12:43;;;;;;;2.80;1.30;;;;;;;25.89;53.98;99762.06;5035549;28;20029;-63
2021/09/17 11:15:14;;;;;;;2.15;1.23;;;;;;;25.96;52.34;99758.63;5035404;28;20038;-62
2021/09/17 11:17:47;;;;;;;3.53;2.47;;;;;;;25.98;52.41;99772.50;5035571;28;20112;-63
2021/09/17 11:20:17;;;;;;;18.15;7.80;;;;;;;25.96;52.30;99780.88;5035672;28;20029;-61
2021/09/17 11:22:48;;;;;;;9.82;3.88;;;;;;;25.91;51.36;99768.06;5035742;28;20356;-64
2021/09/17 11:25:13;;;;;;;11.95;5.30;;;;;;;25.91;51.96;99759.44;5035359;28;20407;-63
2021/09/17 11:27:43;;;;;;;8.75;3.85;;;;;;;25.99;51.86;99769.09;5035340;28;20126;-63